createdAt,value
2023-04-17T05:03:06.563Z,500.00
2023-04-17T05:04:06.559Z,500.00
2023-04-17T05:05:07.433Z,500.00
2023-04-17T05:06:06.456Z,500.00
2023-04-17T05:07:07.429Z,500.00
2023-04-17T05:08:06.499Z,500.00
2023-04-17T05:09:06.552Z,400.00
2023-04-17T05:10:07.625Z,400.00
2023-04-17T05:11:06.616Z,400.00
2023-04-17T05:12:06.640Z,400.00
2023-04-17T05:13:07.658Z,400.00
2023-04-17T05:14:07.667Z,400.00
2023-04-17T05:15:06.640Z,400.00
2023-04-17T05:16:06.668Z,400.00
2023-04-17T05:17:07.664Z,400.00
2023-04-17T05:18:07.723Z,400.00
2023-04-17T05:19:06.748Z,400.00
2023-04-17T05:20:07.795Z,400.00
2023-04-17T05:21:07.819Z,400.00
2023-04-17T05:22:07.893Z,400.00
2023-04-17T05:23:07.941Z,400.00
2023-04-17T05:24:08.000Z,400.00
2023-04-17T05:25:08.086Z,400.00
2023-04-17T05:26:07.102Z,400.00
2023-04-17T05:27:08.148Z,400.00
2023-04-17T05:28:08.210Z,400.00
2023-04-17T05:29:08.281Z,400.00
2023-04-17T05:30:07.349Z,400.00
2023-04-17T05:31:08.442Z,400.00
2023-04-17T05:32:07.770Z,400.00
2023-04-17T05:33:08.544Z,400.00
2023-04-17T05:34:08.740Z,402.00
2023-04-17T05:35:07.660Z,453.00
2023-04-17T05:36:07.720Z,492.00
2023-04-17T05:37:08.749Z,501.00
2023-04-17T05:38:08.810Z,500.00
2023-04-17T05:39:08.940Z,499.00
2023-04-17T05:40:08.911Z,504.00
2023-04-17T05:41:08.980Z,500.00
2023-04-17T05:42:09.037Z,501.00
2023-04-17T05:43:09.126Z,505.00
2023-04-17T05:44:08.174Z,500.00
2023-04-17T05:45:09.233Z,500.00
2023-04-17T05:46:09.335Z,513.00
2023-04-17T05:47:09.367Z,503.00
2023-04-17T05:48:08.452Z,502.00
2023-04-17T05:49:08.503Z,506.00
2023-04-17T05:50:08.602Z,502.00
2023-04-17T05:51:08.626Z,500.00
2023-04-17T05:52:08.696Z,505.00
2023-04-17T05:53:09.774Z,500.00
2023-04-17T05:54:09.810Z,502.00
2023-04-17T05:55:09.870Z,503.00
2023-04-17T05:56:10.053Z,502.00
2023-04-17T05:57:09.002Z,503.00
2023-04-17T05:58:23.146Z,500.00
2023-04-17T05:59:10.260Z,500.00
2023-04-17T06:00:09.051Z,496.00
2023-04-17T06:01:10.052Z,496.00
2023-04-17T06:02:09.107Z,488.00
2023-04-17T06:03:10.230Z,494.00
2023-04-17T06:04:09.204Z,499.00
2023-04-17T06:05:10.244Z,504.00
2023-04-17T06:06:09.045Z,509.00
2023-04-17T06:07:10.009Z,502.00
2023-04-17T06:08:10.026Z,501.00
2023-04-17T06:09:10.441Z,507.00
2023-04-17T06:10:10.100Z,516.00
2023-04-17T06:11:10.157Z,511.00
2023-04-17T06:12:09.177Z,514.00
2023-04-17T06:13:09.222Z,512.00
2023-04-17T06:14:10.229Z,532.00
2023-04-17T06:15:10.259Z,535.00
2023-04-17T06:16:09.279Z,530.00
2023-04-17T06:17:09.344Z,531.00
2023-04-17T06:18:10.291Z,537.00
2023-04-17T06:19:10.488Z,530.00
2023-04-17T06:20:09.288Z,537.00
2023-04-17T06:21:10.385Z,539.00
2023-04-17T06:22:09.299Z,544.00
2023-04-17T06:23:09.290Z,540.00
2023-04-17T06:24:09.304Z,549.00
2023-04-17T06:25:09.320Z,552.00
2023-04-17T06:26:09.326Z,551.00
2023-04-17T06:27:09.420Z,554.00
2023-04-17T06:28:10.472Z,551.00
2023-04-17T06:29:10.603Z,554.00
2023-04-17T06:30:10.394Z,556.00
2023-04-17T06:31:09.399Z,565.00
2023-04-17T06:32:09.392Z,566.00
2023-04-17T06:33:10.388Z,569.00
2023-04-17T06:34:10.382Z,563.00
2023-04-17T06:35:10.375Z,569.00
2023-04-17T06:36:10.381Z,569.00
2023-04-17T06:37:09.402Z,573.00
2023-04-17T06:38:09.420Z,572.00
2023-04-17T06:39:10.600Z,576.00
2023-04-17T06:40:09.434Z,576.00
2023-04-17T06:41:09.455Z,588.00
2023-04-17T06:42:09.463Z,596.00
2023-04-17T06:43:10.473Z,584.00
2023-04-17T06:44:10.469Z,580.00
2023-04-17T06:45:09.496Z,588.00
2023-04-17T06:46:10.531Z,585.00
2023-04-17T06:47:09.545Z,581.00
2023-04-17T06:48:10.562Z,583.00
2023-04-17T06:49:10.712Z,577.00
2023-04-17T06:50:09.581Z,578.00
2023-04-17T06:51:10.626Z,589.00
2023-04-17T06:52:09.651Z,596.00
2023-04-17T06:53:09.702Z,596.00
2023-04-17T06:54:10.867Z,613.00
2023-04-17T06:55:10.874Z,612.00
2023-04-17T06:56:11.086Z,607.00
2023-04-17T06:57:09.913Z,611.00
2023-04-17T06:58:10.908Z,605.00
2023-04-17T06:59:10.218Z,611.00
2023-04-17T07:00:09.958Z,612.00
2023-04-17T07:01:10.967Z,610.00
2023-04-17T07:02:11.007Z,610.00
2023-04-17T07:03:10.089Z,609.00
2023-04-17T07:04:10.136Z,617.00
2023-04-17T07:05:11.066Z,622.00
2023-04-17T07:06:11.090Z,615.00
2023-04-17T07:07:10.117Z,622.00
2023-04-17T07:08:10.148Z,626.00
2023-04-17T07:09:11.449Z,634.00
2023-04-17T07:10:11.315Z,627.00
2023-04-17T07:11:10.365Z,624.00
2023-04-17T07:12:10.398Z,617.00
2023-04-17T07:13:10.462Z,624.00
2023-04-17T07:14:12.905Z,624.00
2023-04-17T07:15:10.754Z,613.00
2023-04-17T07:16:10.765Z,609.00
2023-04-17T07:17:11.784Z,610.00
2023-04-17T07:18:11.835Z,613.00
2023-04-17T07:19:12.113Z,615.00
2023-04-17T07:20:11.007Z,618.00
2023-04-17T07:21:11.977Z,612.00
2023-04-17T07:22:12.040Z,615.00
2023-04-17T07:23:11.076Z,617.00
2023-04-17T07:24:11.147Z,623.00
2023-04-17T07:25:12.187Z,635.00
2023-04-17T07:26:12.271Z,626.00
2023-04-17T07:27:11.303Z,643.00
2023-04-17T07:28:12.346Z,645.00
2023-04-17T07:29:11.758Z,659.00
2023-04-17T07:30:11.518Z,643.00
2023-04-17T07:31:12.608Z,740.00
2023-04-17T07:32:11.537Z,799.00
2023-04-17T07:33:12.617Z,784.00
2023-04-17T07:34:12.688Z,730.00
2023-04-17T07:35:12.703Z,696.00
2023-04-17T07:36:12.762Z,703.00
2023-04-17T07:37:11.809Z,707.00
2023-04-17T07:38:12.878Z,698.00
2023-04-17T07:39:12.257Z,699.00
2023-04-17T07:40:11.972Z,731.00
2023-04-17T07:41:12.027Z,666.00
2023-04-17T07:42:12.164Z,691.00
2023-04-17T07:43:13.127Z,718.00
2023-04-17T07:44:12.172Z,700.00
2023-04-17T07:45:12.222Z,701.00
2023-04-17T07:46:12.245Z,719.00
2023-04-17T07:47:13.459Z,726.00
2023-04-17T07:48:13.369Z,699.00
2023-04-17T07:49:13.846Z,737.00
2023-04-17T07:50:13.422Z,753.00
2023-04-17T07:51:13.603Z,743.00
2023-04-17T07:52:12.506Z,750.00
2023-04-17T07:53:12.513Z,751.00
2023-04-17T07:54:13.509Z,731.00
2023-04-17T07:55:13.542Z,716.00
2023-04-17T07:56:13.610Z,723.00
2023-04-17T07:57:13.569Z,712.00
2023-04-17T07:58:13.648Z,706.00
2023-04-17T07:59:13.971Z,714.00
2023-04-17T08:00:13.660Z,715.00
2023-04-17T08:01:13.675Z,712.00
2023-04-17T08:02:13.773Z,697.00
2023-04-17T08:03:13.913Z,706.00
2023-04-17T08:04:14.117Z,713.00
2023-04-17T08:05:12.697Z,719.00
2023-04-17T08:06:13.681Z,706.00
2023-04-17T08:07:12.666Z,702.00
2023-04-17T08:08:13.688Z,684.00
2023-04-17T08:09:13.980Z,688.00
2023-04-17T08:10:13.695Z,692.00
2023-04-17T08:11:13.664Z,689.00
2023-04-17T08:12:13.663Z,689.00
2023-04-17T08:13:13.677Z,683.00
2023-04-17T08:14:13.681Z,696.00
2023-04-17T08:15:12.655Z,701.00
2023-04-17T08:16:13.694Z,678.00
2023-04-17T08:17:12.744Z,670.00
2023-04-17T08:18:13.662Z,679.00
2023-04-17T08:19:13.938Z,689.00
2023-04-17T08:20:13.673Z,672.00
2023-04-17T08:21:13.679Z,689.00
2023-04-17T08:22:12.682Z,684.00
2023-04-17T08:23:13.715Z,666.00
2023-04-17T08:24:13.713Z,673.00
2023-04-17T08:25:13.734Z,666.00
2023-04-17T08:26:12.739Z,673.00
2023-04-17T08:27:13.757Z,671.00
2023-04-17T08:28:13.775Z,663.00
2023-04-17T08:29:12.992Z,662.00
2023-04-17T08:30:16.333Z,681.00
2023-04-17T08:31:13.908Z,681.00
2023-04-17T08:32:15.005Z,681.00
2023-04-17T08:33:13.795Z,681.00
2023-04-17T08:34:14.842Z,678.00
2023-04-17T08:35:12.916Z,681.00
2023-04-17T08:36:13.943Z,656.00
2023-04-17T08:37:12.963Z,654.00
2023-04-17T08:38:14.026Z,662.00
2023-04-17T08:39:13.140Z,652.00
2023-04-17T08:40:13.013Z,654.00
2023-04-17T08:41:14.117Z,649.00
2023-04-17T08:42:16.687Z,641.00
2023-04-17T08:43:14.105Z,642.00
2023-04-17T08:44:14.045Z,642.00
2023-04-17T08:45:13.030Z,643.00
2023-04-17T08:46:13.105Z,643.00
2023-04-17T08:47:14.097Z,645.00
2023-04-17T08:48:14.026Z,653.00
2023-04-17T08:49:14.319Z,650.00
2023-04-17T08:50:13.026Z,651.00
2023-04-17T08:51:14.003Z,651.00
2023-04-17T08:52:13.990Z,640.00
2023-04-17T08:53:13.981Z,645.00
2023-04-17T08:54:13.981Z,642.00
2023-04-17T08:55:12.987Z,639.00
2023-04-17T08:56:12.976Z,636.00
2023-04-17T08:57:12.959Z,630.00
2023-04-17T08:58:13.956Z,634.00
2023-04-17T08:59:14.275Z,627.00
2023-04-17T09:00:13.937Z,631.00
2023-04-17T09:01:12.964Z,616.00
2023-04-17T09:02:14.158Z,623.00
2023-04-17T09:03:14.231Z,618.00
2023-04-17T09:04:14.036Z,619.00
2023-04-17T09:05:13.927Z,620.00
2023-04-17T09:06:12.970Z,617.00
2023-04-17T09:07:13.908Z,618.00
2023-04-17T09:08:13.905Z,626.00
2023-04-17T09:09:13.992Z,615.00
2023-04-17T09:10:13.902Z,618.00
2023-04-17T09:11:13.879Z,620.00
2023-04-17T09:12:12.885Z,620.00
2023-04-17T09:13:13.866Z,620.00
2023-04-17T09:14:13.852Z,615.00
2023-04-17T09:15:13.846Z,617.00
2023-04-17T09:16:13.905Z,615.00
2023-04-17T09:17:13.843Z,618.00
2023-04-17T09:18:13.922Z,614.00
2023-04-17T09:19:13.972Z,615.00
2023-04-17T09:20:12.878Z,620.00
2023-04-17T09:21:13.901Z,614.00
2023-04-17T09:22:13.913Z,619.00
2023-04-17T09:23:12.905Z,616.00
2023-04-17T09:24:12.930Z,620.00
2023-04-17T09:25:12.939Z,616.00
2023-04-17T09:26:13.969Z,611.00
2023-04-17T09:27:13.951Z,616.00
2023-04-17T09:28:13.982Z,616.00
2023-04-17T09:29:13.542Z,610.00
2023-04-17T09:30:13.992Z,615.00
2023-04-17T09:31:14.056Z,617.00
2023-04-17T09:32:14.036Z,617.00
2023-04-17T09:33:13.081Z,618.00
2023-04-17T09:34:14.171Z,619.00
2023-04-17T09:35:13.041Z,619.00
2023-04-17T09:36:14.086Z,618.00
2023-04-17T09:37:13.070Z,625.00
2023-04-17T09:38:14.086Z,618.00
2023-04-17T09:39:13.389Z,620.00
2023-04-17T09:40:14.104Z,618.00
2023-04-17T09:41:14.101Z,613.00
2023-04-17T09:42:13.119Z,621.00
2023-04-17T09:43:14.121Z,619.00
2023-04-17T09:44:13.265Z,614.00
2023-04-17T09:45:13.145Z,618.00
2023-04-17T09:46:13.196Z,615.00
2023-04-17T09:47:13.181Z,622.00
2023-04-17T09:48:14.165Z,612.00
2023-04-17T09:49:14.167Z,614.00
2023-04-17T09:50:14.213Z,616.00
2023-04-17T09:51:14.202Z,614.00
2023-04-17T09:52:14.206Z,616.00
2023-04-17T09:53:14.231Z,616.00
2023-04-17T09:54:14.433Z,619.00
2023-04-17T09:55:13.249Z,619.00
2023-04-17T09:56:13.271Z,620.00
2023-04-17T09:57:14.249Z,620.00
2023-04-17T09:58:14.265Z,626.00
2023-04-17T09:59:14.277Z,615.00
2023-04-17T10:00:13.267Z,613.00
2023-04-17T10:01:13.314Z,618.00
2023-04-17T10:02:13.310Z,618.00
2023-04-17T10:03:13.434Z,618.00
2023-04-17T10:04:14.665Z,625.00
2023-04-17T10:05:14.279Z,622.00
2023-04-17T10:06:13.346Z,615.00
2023-04-17T10:07:14.264Z,621.00
2023-04-17T10:08:13.283Z,615.00
2023-04-17T10:09:14.302Z,617.00
2023-04-17T10:10:14.321Z,611.00
2023-04-17T10:11:13.329Z,614.00
2023-04-17T10:12:14.351Z,629.00
2023-04-17T10:13:14.369Z,640.00
2023-04-17T10:14:14.574Z,629.00
2023-04-17T10:15:14.397Z,629.00
2023-04-17T10:16:13.449Z,632.00
2023-04-17T10:17:13.398Z,634.00
2023-04-17T10:18:13.519Z,631.00
2023-04-17T10:19:14.428Z,630.00
2023-04-17T10:20:14.430Z,628.00
2023-04-17T10:21:14.424Z,623.00
2023-04-17T10:22:14.503Z,620.00
2023-04-17T10:23:14.455Z,622.00
2023-04-17T10:24:14.472Z,625.00
2023-04-17T10:25:14.500Z,624.00
2023-04-17T10:26:14.486Z,627.00
2023-04-17T10:27:14.510Z,621.00
2023-04-17T10:28:13.518Z,626.00
2023-04-17T10:29:14.541Z,628.00
2023-04-17T10:30:14.557Z,629.00
2023-04-17T10:31:14.679Z,632.00
2023-04-17T10:32:13.724Z,626.00
2023-04-17T10:33:14.725Z,624.00
2023-04-17T10:34:14.724Z,624.00
2023-04-17T10:35:13.777Z,627.00
2023-04-17T10:36:13.809Z,616.00
2023-04-17T10:37:14.816Z,618.00
2023-04-17T10:38:13.903Z,613.00
2023-04-17T10:39:14.102Z,613.00
2023-04-17T10:40:15.001Z,609.00
2023-04-17T10:41:15.168Z,605.00
2023-04-17T10:42:15.056Z,612.00
2023-04-17T10:43:15.083Z,606.00
2023-04-17T10:44:15.136Z,617.00
2023-04-17T10:45:15.190Z,624.00
2023-04-17T10:46:14.316Z,627.00
2023-04-17T10:47:15.327Z,623.00
2023-04-17T10:48:15.420Z,630.00
2023-04-17T10:49:15.398Z,626.00
2023-04-17T10:50:14.485Z,622.00
2023-04-17T10:51:15.477Z,623.00
2023-04-17T10:52:14.494Z,620.00
2023-04-17T10:53:15.205Z,623.00
2023-04-17T10:54:14.575Z,630.00
2023-04-17T10:55:14.591Z,629.00
2023-04-17T10:56:15.625Z,637.00
2023-04-17T10:57:15.592Z,636.00
2023-04-17T10:58:14.603Z,643.00
2023-04-17T10:59:14.888Z,631.00
2023-04-17T11:00:14.644Z,634.00
2023-04-17T11:01:14.740Z,636.00
2023-04-17T11:02:14.755Z,627.00
2023-04-17T11:03:14.935Z,622.00
2023-04-17T11:04:15.818Z,622.00
2023-04-17T11:05:14.847Z,624.00
2023-04-17T11:06:15.924Z,648.00
2023-04-17T11:07:15.973Z,644.00
2023-04-17T11:08:15.006Z,647.00
2023-04-17T11:09:16.506Z,659.00
2023-04-17T11:10:16.154Z,691.00
2023-04-17T11:11:18.575Z,703.00
2023-04-17T11:12:16.187Z,704.00
2023-04-17T11:13:15.182Z,702.00
2023-04-17T11:14:15.287Z,683.00
2023-04-17T11:15:15.155Z,709.00
2023-04-17T11:16:15.195Z,709.00
2023-04-17T11:17:16.218Z,710.00
2023-04-17T11:18:15.132Z,712.00
2023-04-17T11:19:15.323Z,708.00
2023-04-17T11:20:16.105Z,721.00
2023-04-17T11:21:16.113Z,697.00
2023-04-17T11:22:16.097Z,727.00
2023-04-17T11:23:16.136Z,700.00
2023-04-17T11:24:15.082Z,698.00
2023-04-17T11:25:15.084Z,719.00
2023-04-17T11:26:16.101Z,691.00
2023-04-17T11:27:15.068Z,703.00
2023-04-17T11:28:16.053Z,679.00
2023-04-17T11:29:15.142Z,659.00
2023-04-17T11:30:16.052Z,656.00
2023-04-17T11:31:18.155Z,663.00
2023-04-17T11:32:16.036Z,663.00
2023-04-17T11:33:16.030Z,665.00
2023-04-17T11:34:16.036Z,670.00
2023-04-17T11:35:15.019Z,667.00
2023-04-17T11:36:16.012Z,653.00
2023-04-17T11:37:16.203Z,665.00
2023-04-17T11:38:15.995Z,662.00
2023-04-17T11:39:16.016Z,661.00
2023-04-17T11:40:14.994Z,663.00
2023-04-17T11:41:15.983Z,656.00
2023-04-17T11:42:14.989Z,647.00
2023-04-17T11:43:15.958Z,659.00
2023-04-17T11:44:15.962Z,648.00
2023-04-17T11:45:15.943Z,648.00
2023-04-17T11:46:15.964Z,652.00
2023-04-17T11:47:15.940Z,647.00
2023-04-17T11:48:15.941Z,644.00
2023-04-17T11:49:15.022Z,648.00
2023-04-17T11:50:15.923Z,636.00
2023-04-17T11:51:14.915Z,640.00
2023-04-17T11:52:17.938Z,629.00
2023-04-17T11:53:14.905Z,637.00
2023-04-17T11:54:15.905Z,640.00
2023-04-17T11:55:14.882Z,638.00
2023-04-17T11:56:14.874Z,638.00
2023-04-17T11:57:15.876Z,630.00
2023-04-17T11:58:15.902Z,634.00
2023-04-17T11:59:14.867Z,623.00
2023-04-17T12:00:15.875Z,628.00
2023-04-17T12:01:15.846Z,626.00
2023-04-17T12:02:15.977Z,626.00
2023-04-17T12:03:15.068Z,618.00
2023-04-17T12:04:16.199Z,622.00
2023-04-17T12:05:16.009Z,626.00
2023-04-17T12:06:14.811Z,613.00
2023-04-17T12:07:15.808Z,613.00
2023-04-17T12:08:14.802Z,620.00
2023-04-17T12:09:15.829Z,605.00
2023-04-17T12:10:15.788Z,612.00
2023-04-17T12:11:14.770Z,616.00
2023-04-17T12:12:14.778Z,613.00
2023-04-17T12:13:15.766Z,603.00
2023-04-17T12:14:15.773Z,602.00
2023-04-17T12:15:15.737Z,605.00
2023-04-17T12:16:14.783Z,601.00
2023-04-17T12:17:15.743Z,600.00
2023-04-17T12:18:15.718Z,592.00
2023-04-17T12:19:14.715Z,597.00
2023-04-17T12:20:14.701Z,593.00
2023-04-17T12:21:15.719Z,592.00
2023-04-17T12:22:14.692Z,590.00
2023-04-17T12:23:15.684Z,592.00
2023-04-17T12:24:14.688Z,595.00
2023-04-17T12:25:15.673Z,592.00
2023-04-17T12:26:14.680Z,584.00
2023-04-17T12:27:15.652Z,594.00
2023-04-17T12:28:15.652Z,592.00
2023-04-17T12:29:14.642Z,590.00
2023-04-17T12:30:14.668Z,587.00
2023-04-17T12:31:15.695Z,574.00
2023-04-17T12:32:15.649Z,567.00
2023-04-17T12:33:14.613Z,580.00
2023-04-17T12:34:15.612Z,581.00
2023-04-17T12:35:15.609Z,583.00
2023-04-17T12:36:14.619Z,584.00
2023-04-17T12:37:14.634Z,571.00
2023-04-17T12:38:15.640Z,567.00
2023-04-17T12:39:15.678Z,576.00
2023-04-17T12:40:15.682Z,575.00
2023-04-17T12:41:14.705Z,565.00
2023-04-17T12:42:15.697Z,572.00
2023-04-17T12:43:15.721Z,577.00
2023-04-17T12:44:15.070Z,578.00
2023-04-17T12:45:15.801Z,578.00
2023-04-17T12:46:15.900Z,577.00
2023-04-17T12:47:15.921Z,578.00
2023-04-17T12:48:14.989Z,592.00
2023-04-17T12:49:16.148Z,588.00
2023-04-17T12:50:16.083Z,558.00
2023-04-17T12:51:16.148Z,553.00
2023-04-17T12:52:16.172Z,557.00
2023-04-17T12:53:15.211Z,550.00
2023-04-17T12:54:15.275Z,560.00
2023-04-17T12:55:15.192Z,534.00
2023-04-17T12:56:15.221Z,512.00
2023-04-17T12:57:16.232Z,512.00
2023-04-17T12:58:16.266Z,511.00
2023-04-17T12:59:15.288Z,509.00
2023-04-17T13:00:15.290Z,510.00
2023-04-17T13:01:15.334Z,508.00
2023-04-17T13:02:16.404Z,499.00
2023-04-17T13:03:15.541Z,501.00
2023-04-17T13:04:15.984Z,502.00
2023-04-17T13:05:15.381Z,519.00
2023-04-17T13:06:15.390Z,513.00
2023-04-17T13:07:16.410Z,516.00
2023-04-17T13:08:16.423Z,533.00
2023-04-17T13:09:16.414Z,514.00
2023-04-17T13:10:15.418Z,512.00
2023-04-17T13:11:16.434Z,528.00
2023-04-17T13:12:15.443Z,533.00
2023-04-17T13:13:16.465Z,526.00
2023-04-17T13:14:15.456Z,510.00
2023-04-17T13:15:16.477Z,507.00
2023-04-17T13:16:15.550Z,500.00
2023-04-17T13:17:17.442Z,518.00
2023-04-17T13:18:16.585Z,535.00
2023-04-17T13:19:16.599Z,559.00
2023-04-17T13:20:15.696Z,541.00
2023-04-17T13:21:16.732Z,522.00
2023-04-17T13:22:16.781Z,525.00
2023-04-17T13:23:16.819Z,548.00
2023-04-17T13:24:15.881Z,554.00
2023-04-17T13:25:17.024Z,554.00
2023-04-17T13:26:16.983Z,545.00
2023-04-17T13:27:17.056Z,549.00
2023-04-17T13:28:16.102Z,558.00
2023-04-17T13:29:18.506Z,557.00
2023-04-17T13:30:16.163Z,574.00
2023-04-17T13:31:17.187Z,566.00
2023-04-17T13:32:17.152Z,553.00
2023-04-17T13:33:17.138Z,529.00
2023-04-17T13:34:16.162Z,519.00
2023-04-17T13:35:17.130Z,550.00
2023-04-17T13:36:17.104Z,547.00
2023-04-17T13:37:16.104Z,540.00
2023-04-17T13:38:17.094Z,544.00
2023-04-17T13:39:17.088Z,524.00
2023-04-17T13:40:17.462Z,531.00
2023-04-17T13:41:17.085Z,546.00
2023-04-17T13:42:17.080Z,544.00
2023-04-17T13:43:16.070Z,527.00
2023-04-17T13:44:16.054Z,508.00
2023-04-17T13:45:17.067Z,517.00
2023-04-17T13:46:17.081Z,503.00
2023-04-17T13:47:16.042Z,508.00
2023-04-17T13:48:17.059Z,501.00
2023-04-17T13:49:17.044Z,510.00
2023-04-17T13:50:17.044Z,525.00
2023-04-17T13:51:17.013Z,535.00
2023-04-17T13:52:17.013Z,540.00
2023-04-17T13:53:17.006Z,527.00
2023-04-17T13:54:16.991Z,502.00
2023-04-17T13:55:16.993Z,537.00
2023-04-17T13:56:16.991Z,536.00
2023-04-17T13:57:16.977Z,542.00
2023-04-17T13:58:15.999Z,562.00
2023-04-17T13:59:17.054Z,551.00
2023-04-17T14:00:17.133Z,575.00
2023-04-17T14:01:17.187Z,563.00
2023-04-17T14:02:18.465Z,573.00
2023-04-17T14:03:16.484Z,577.00
2023-04-17T14:04:16.526Z,564.00
2023-04-17T14:05:16.440Z,540.00
2023-04-17T14:06:17.469Z,558.00
2023-04-17T14:07:17.478Z,564.00
2023-04-17T14:08:17.469Z,553.00
2023-04-17T14:09:16.497Z,530.00
2023-04-17T14:10:17.514Z,548.00
2023-04-17T14:11:17.524Z,566.00
2023-04-17T14:12:17.535Z,584.00
2023-04-17T14:13:17.581Z,594.00
2023-04-17T14:14:16.646Z,581.00
2023-04-17T14:15:16.699Z,582.00
2023-04-17T14:16:16.795Z,587.00
2023-04-17T14:17:17.796Z,584.00
2023-04-17T14:18:16.857Z,589.00
2023-04-17T14:19:17.156Z,588.00
2023-04-17T14:20:16.970Z,563.00
2023-04-17T14:21:18.034Z,544.00
2023-04-17T14:22:18.102Z,555.00
2023-04-17T14:23:18.073Z,553.00
2023-04-17T14:24:17.082Z,534.00
2023-04-17T14:25:17.105Z,532.00
2023-04-17T14:26:18.133Z,530.00
2023-04-17T14:27:17.151Z,526.00
2023-04-17T14:28:17.133Z,519.00
2023-04-17T14:29:18.256Z,512.00
2023-04-17T14:30:18.143Z,508.00
2023-04-17T14:31:18.158Z,513.00
2023-04-17T14:32:18.206Z,500.00
2023-04-17T14:33:18.162Z,515.00
2023-04-17T14:34:18.170Z,544.00
2023-04-17T14:35:17.183Z,568.00
2023-04-17T14:36:18.195Z,601.00
2023-04-17T14:37:17.203Z,623.00
2023-04-17T14:38:17.262Z,640.00
2023-04-17T14:39:17.227Z,664.00
2023-04-17T14:40:17.250Z,712.00
2023-04-17T14:41:18.289Z,709.00
2023-04-17T14:42:17.268Z,670.00
2023-04-17T14:43:18.294Z,665.00
2023-04-17T14:44:17.327Z,656.00
2023-04-17T14:45:18.339Z,649.00
2023-04-17T14:46:18.377Z,647.00
2023-04-17T14:47:17.388Z,646.00
2023-04-17T14:48:17.419Z,641.00
2023-04-17T14:49:17.443Z,639.00
2023-04-17T14:50:17.468Z,648.00
2023-04-17T14:51:18.487Z,663.00
2023-04-17T14:52:17.503Z,668.00
2023-04-17T14:53:19.392Z,729.00
2023-04-17T14:54:17.539Z,744.00
2023-04-17T14:55:18.522Z,781.00
2023-04-17T14:56:17.541Z,846.00
2023-04-17T14:57:17.509Z,922.00
2023-04-17T14:58:17.486Z,1023.00
2023-04-17T14:59:17.475Z,1065.00
2023-04-17T15:00:17.512Z,1101.00
2023-04-17T15:01:18.486Z,1112.00
2023-04-17T15:02:17.514Z,1134.00
2023-04-17T15:03:18.627Z,1193.00
2023-04-17T15:04:17.503Z,1221.00
2023-04-17T15:05:17.458Z,1290.00
2023-04-17T15:06:18.441Z,1376.00
2023-04-17T15:07:17.422Z,1408.00
2023-04-17T15:08:18.419Z,1475.00
2023-04-17T15:09:17.414Z,1480.00
2023-04-17T15:10:18.445Z,1520.00
2023-04-17T15:11:18.429Z,1481.00
2023-04-17T15:12:18.387Z,1493.00
2023-04-17T15:13:18.394Z,1670.00
2023-04-17T15:14:18.385Z,1624.00
2023-04-17T15:15:18.398Z,1606.00
2023-04-17T15:16:17.377Z,1714.00
2023-04-17T15:17:17.365Z,1632.00
2023-04-17T15:18:18.388Z,1595.00
2023-04-17T15:19:18.361Z,1574.00
2023-04-17T15:20:17.362Z,1523.00
2023-04-17T15:21:18.334Z,1569.00
2023-04-17T15:22:18.345Z,1599.00
2023-04-17T15:23:18.330Z,1624.00
2023-04-17T15:24:18.313Z,1665.00
2023-04-17T15:25:18.310Z,1689.00
2023-04-17T15:26:18.325Z,1694.00
2023-04-17T15:27:17.300Z,1709.00
2023-04-17T15:28:17.297Z,1712.00
2023-04-17T15:29:17.282Z,1711.00
